GABS

Senou Airport

Senou, Mali
METAR GABS 260230Z 35005KT 8000 NSC 26/13 Q1012 NOSIG
Observed Flight Rules
Feb-26 @ 02:30 UTC (48 minutes ago) Marginal Visual Flight Rules
Wind Visibility Clouds
350° at 5 knots 7,998 meters
  • Clear skies
Temperatures Readings
Current 26°C / 79°F
Dewpoint 13°C / 55°F
Humidity 45%
Altimeter 29.88" Hg
Pressure 1012 hPa
Elevation 381
METAR GABS 260230Z 35005KT 8000 NSC 26/13 Q1012 NOSIG
Observed Flight Rules
Feb-26 @ 02:30 UTC
(48 minutes ago)
MVFR
Wind Visibility
350° at 5 knots 7,998 meters
Clouds
  • Clear skies
Temperature Dewpoint
26°C / 79°F 13°C / 55°F
Humidity Altimeter Pressure
45% 29.88" Hg 1012 hPa